• location
  • image
mod_vvisit_countermod_vvisit_countermod_vvisit_countermod_vvisit_countermod_vvisit_countermod_vvisit_countermod_vvisit_counter
mod_vvisit_counterToday197
mod_vvisit_counterYesterday479
mod_vvisit_counterThis week197
mod_vvisit_counterLast week4472
mod_vvisit_counterThis month6025
mod_vvisit_counterLast month17680
mod_vvisit_counterAll days1031937

We have: 9 guests online
Your IP: 54.226.36.60
 , 
Today: Dec 10, 2018
Airport / Services

List of services

  

Services of Siauliai International Airport:

 

Leading (follow me)

Ground services

Aircraft loading/unloading

Aircraft parking

Aircraft security

Aircraft fuel supply

Passenger baggage service

Business class passenger service

Submission of information to passengers

Serving meals to passengers and crew

Additional services for aircraft crewmembers

Aviation Security

Dining Cafe

First medical aid

Hotel reservations

Transporting crew to/from the city

Taxi booking 

Border procedures

Customs procedures

 

Today

Monday, 10 December 2018

Aviation Weather Forecast

[source: ADDS]
METAR
EYSA 100320Z 21007KT 1100 R14L/1600N BR VV003 03/03 Q0991 R14L/29//95 AMB NOSIG =
TAF EYSA 100203Z 1003/1012 VRB05KT 1500 BR OVC002 TEMPO 1003/1009 0500 DZ FG BECMG 1009/1011 3000
TAF
TAF EYSA 100203Z 1003/1012 VRB05KT 1500 BR OVC002 TEMPO 1003/1009 0500 DZ FG BECMG 1009/1011 3000 =
SR / SS: 06:41 / 14:00 UTC (EYSA 2018-12-10)

Search

Who's Online

We have 9 guests online

tic logo en